Time;durP1;ratioP1;P1;durP2;ratioP2;P2;SDS_P1;SDS_P2;PMS_P1;PMS_P2;Temp;Humidity;BMP_temperature;BMP_pressure;BME280_temperature;BME280_humidity;BME280_pressure;Samples;Min_cycle;Max_cycle;Signal;HPM_P1;HPM_P2
2024/02/02 00:00:26;;;;;;;5.70;4.18;;;;;;;;;;5007662;28;20033;-80
2024/02/02 00:02:52;;;;;;;4.93;4.13;;;;;;;;;;5030756;28;20021;-81
2024/02/02 00:05:18;;;;;;;6.80;4.53;;;;;;;;;;5031515;28;20092;-79
2024/02/02 00:07:43;;;;;;;6.47;4.78;;;;;;;;;;5018265;28;20025;-79
2024/02/02 00:10:09;;;;;;;6.07;4.50;;;;;;;;;;5031485;28;20375;-79
2024/02/02 00:12:35;;;;;;;6.10;4.10;;;;;;;;;;5013767;28;20017;-80
2024/02/02 00:15:01;;;;;;;5.32;4.25;;;;;;;;;;5030317;28;20108;-80
2024/02/02 00:17:27;;;;;;;6.55;4.28;;;;;;;;;;5020658;28;20153;-80
2024/02/02 00:19:52;;;;;;;6.47;4.13;;;;;;;;;;5013584;28;21362;-81
2024/02/02 00:22:20;;;;;;;6.60;4.53;;;;;;;;;;5014299;28;20510;-81
2024/02/02 00:24:46;;;;;;;6.07;4.20;;;;;;;;;;5013173;28;20029;-81
2024/02/02 00:27:11;;;;;;;7.18;4.82;;;;;;;;;;5013983;28;20026;-81
2024/02/02 00:29:37;;;;;;;6.63;4.32;;;;;;;;;;5013250;28;20021;-81
2024/02/02 00:32:03;;;;;;;6.90;4.50;;;;;;;;;;5026534;28;20093;-80
2024/02/02 00:34:28;;;;;;;5.95;4.47;;;;;;;;;;5012514;28;20089;-81
2024/02/02 00:36:54;;;;;;;6.70;4.88;;;;;;;;;;5012894;28;20396;-81
2024/02/02 00:39:19;;;;;;;7.35;4.80;;;;;;;;;;5021882;28;20100;-81
2024/02/02 00:41:44;;;;;;;5.93;4.32;;;;;;;;;;5012722;28;20092;-81
2024/02/02 00:44:10;;;;;;;7.15;5.03;;;;;;;;;;4996952;28;20488;-81
2024/02/02 00:46:35;;;;;;;6.38;4.53;;;;;;;;;;4994596;28;20096;-81
2024/02/02 00:49:01;;;;;;;5.95;4.45;;;;;;;;;;5011440;28;20027;-81
2024/02/02 00:51:26;;;;;;;6.95;5.07;;;;;;;;;;5011621;28;20029;-81
2024/02/02 00:53:52;;;;;;;7.40;5.05;;;;;;;;;;5000418;28;20037;-80
2024/02/02 00:56:17;;;;;;;6.47;4.63;;;;;;;;;;5029259;28;20115;-80
2024/02/02 00:58:42;;;;;;;6.45;4.38;;;;;;;;;;5013460;28;20026;-80
2024/02/02 01:01:09;;;;;;;6.18;4.78;;;;;;;;;;5013438;28;20056;-81
2024/02/02 01:03:37;;;;;;;6.80;5.03;;;;;;;;;;5026783;28;20025;-81
2024/02/02 01:06:03;;;;;;;7.18;4.82;;;;;;;;;;4992756;28;20038;-80
2024/02/02 01:08:28;;;;;;;7.05;5.20;;;;;;;;;;5030762;28;20040;-80
2024/02/02 01:10:54;;;;;;;6.28;4.85;;;;;;;;;;5017445;28;20763;-79
2024/02/02 01:13:20;;;;;;;5.70;4.40;;;;;;;;;;5020289;28;20049;-80
2024/02/02 01:15:46;;;;;;;7.95;5.30;;;;;;;;;;5011597;28;20112;-80
2024/02/02 01:18:13;;;;;;;6.55;4.93;;;;;;;;;;5014927;28;20164;-81
2024/02/02 01:20:38;;;;;;;5.75;4.45;;;;;;;;;;5032456;28;20116;-80
2024/02/02 01:23:04;;;;;;;7.13;5.07;;;;;;;;;;4997476;28;20534;-80
2024/02/02 01:25:30;;;;;;;6.57;4.68;;;;;;;;;;5023791;28;20053;-79
2024/02/02 01:27:56;;;;;;;6.65;5.10;;;;;;;;;;5030558;28;20124;-80
2024/02/02 01:30:24;;;;;;;7.13;4.63;;;;;;;;;;5028940;28;20548;-80
2024/02/02 01:32:52;;;;;;;6.95;4.97;;;;;;;;;;5011921;28;20101;-80
2024/02/02 01:35:17;;;;;;;6.40;4.85;;;;;;;;;;5012375;28;20022;-80
2024/02/02 01:37:46;;;;;;;6.95;4.72;;;;;;;;;;5028742;28;20030;-80
2024/02/02 01:40:13;;;;;;;7.28;5.30;;;;;;;;;;5028931;28;20064;-80
2024/02/02 01:42:39;;;;;;;6.35;4.47;;;;;;;;;;5028803;28;20072;-80
2024/02/02 01:45:04;;;;;;;6.68;5.00;;;;;;;;;;5013970;28;20077;-80
2024/02/02 01:47:36;;;;;;;7.63;4.93;;;;;;;;;;4996496;28;20100;-81
2024/02/02 01:50:02;;;;;;;7.68;5.05;;;;;;;;;;4997111;28;20030;-80
2024/02/02 01:52:27;;;;;;;7.30;5.07;;;;;;;;;;5031311;28;20026;-80
2024/02/02 01:54:53;;;;;;;7.82;5.10;;;;;;;;;;5013598;28;20031;-80
2024/02/02 01:57:19;;;;;;;7.13;5.07;;;;;;;;;;5033903;28;20128;-80
2024/02/02 01:59:47;;;;;;;7.28;5.18;;;;;;;;;;4996105;28;20033;-80
2024/02/02 02:02:30;;;;;;;7.28;4.78;;;;;;;;;;5034079;28;20141;-80
2024/02/02 02:04:57;;;;;;;6.50;4.60;;;;;;;;;;5034210;28;20026;-80
2024/02/02 02:07:24;;;;;;;6.05;4.75;;;;;;;;;;5024417;28;20029;-81
2024/02/02 02:09:50;;;;;;;6.97;4.95;;;;;;;;;;5015964;28;20041;-80
2024/02/02 02:12:16;;;;;;;7.43;5.05;;;;;;;;;;5042704;28;20041;-81
2024/02/02 02:14:42;;;;;;;6.82;5.00;;;;;;;;;;5024493;28;20053;-81
2024/02/02 02:17:07;;;;;;;7.22;5.05;;;;;;;;;;5038681;28;20044;-81
2024/02/02 02:19:40;;;;;;;6.82;4.95;;;;;;;;;;4995375;28;20057;-81
2024/02/02 02:22:05;;;;;;;7.10;5.00;;;;;;;;;;5015989;28;20034;-80
2024/02/02 02:24:31;;;;;;;6.78;4.90;;;;;;;;;;5012807;28;20091;-80
2024/02/02 02:26:57;;;;;;;6.32;4.80;;;;;;;;;;5009521;28;20534;-80
2024/02/02 02:29:27;;;;;;;5.90;4.80;;;;;;;;;;5021019;28;20558;-81
2024/02/02 02:31:53;;;;;;;7.25;5.30;;;;;;;;;;5006530;28;20467;-81
2024/02/02 02:34:20;;;;;;;7.30;5.07;;;;;;;;;;4997752;28;20041;-81
2024/02/02 02:36:45;;;;;;;5.95;4.38;;;;;;;;;;4985223;28;20080;-80
2024/02/02 02:39:11;;;;;;;7.50;5.38;;;;;;;;;;5003592;28;20062;-80
2024/02/02 02:41:38;;;;;;;6.32;4.68;;;;;;;;;;5030998;28;20049;-81
2024/02/02 02:44:03;;;;;;;6.30;4.65;;;;;;;;;;5036765;28;20045;-81
2024/02/02 02:46:28;;;;;;;7.50;5.10;;;;;;;;;;5039283;28;20097;-81
2024/02/02 02:48:54;;;;;;;7.07;4.85;;;;;;;;;;5019999;28;20049;-82
2024/02/02 02:51:19;;;;;;;7.20;5.10;;;;;;;;;;5049068;28;20467;-81
2024/02/02 02:53:46;;;;;;;6.80;5.05;;;;;;;;;;5056796;28;20041;-81
2024/02/02 02:56:11;;;;;;;7.15;5.15;;;;;;;;;;5014366;28;20045;-80
2024/02/02 02:58:37;;;;;;;8.00;4.95;;;;;;;;;;5016009;28;20105;-80
2024/02/02 03:01:02;;;;;;;7.00;5.03;;;;;;;;;;5014843;28;20054;-81
2024/02/02 03:03:27;;;;;;;6.35;5.00;;;;;;;;;;4996134;28;20512;-80
2024/02/02 03:05:53;;;;;;;7.88;5.00;;;;;;;;;;5032655;28;20166;-80
2024/02/02 03:08:18;;;;;;;6.18;4.38;;;;;;;;;;5031287;28;20044;-80
2024/02/02 03:10:43;;;;;;;6.35;4.65;;;;;;;;;;5033872;28;20033;-81
2024/02/02 03:13:09;;;;;;;6.72;4.93;;;;;;;;;;5030416;28;20133;-80
2024/02/02 03:15:35;;;;;;;7.05;4.93;;;;;;;;;;5025725;28;20041;-81
2024/02/02 03:18:00;;;;;;;8.15;4.93;;;;;;;;;;5032004;28;20516;-81
2024/02/02 03:20:30;;;;;;;7.10;5.13;;;;;;;;;;5013555;28;20696;-80
2024/02/02 03:22:55;;;;;;;6.35;4.53;;;;;;;;;;5011212;28;20030;-81
2024/02/02 03:25:20;;;;;;;6.47;4.88;;;;;;;;;;5013429;28;20129;-81
2024/02/02 03:27:47;;;;;;;6.32;4.68;;;;;;;;;;5014095;28;20051;-81
2024/02/02 03:30:12;;;;;;;7.18;5.00;;;;;;;;;;5031558;28;20555;-81
2024/02/02 03:32:38;;;;;;;6.80;5.03;;;;;;;;;;5031172;28;20035;-82
2024/02/02 03:35:03;;;;;;;5.53;4.40;;;;;;;;;;5031277;28;20723;-80
2024/02/02 03:37:29;;;;;;;6.05;4.70;;;;;;;;;;5031022;28;20034;-82
2024/02/02 03:39:54;;;;;;;7.10;4.90;;;;;;;;;;5031164;28;20477;-81
2024/02/02 03:42:20;;;;;;;5.72;4.50;;;;;;;;;;5030344;28;20419;-80
2024/02/02 03:44:45;;;;;;;6.00;4.57;;;;;;;;;;5027212;28;20034;-80
2024/02/02 03:47:10;;;;;;;6.32;4.55;;;;;;;;;;4996384;28;20033;-81
2024/02/02 03:49:37;;;;;;;6.20;4.50;;;;;;;;;;5013031;28;20090;-81
2024/02/02 03:52:06;;;;;;;6.18;4.65;;;;;;;;;;5030305;28;20045;-81
2024/02/02 03:54:31;;;;;;;5.82;4.47;;;;;;;;;;5026241;28;20796;-82
2024/02/02 03:56:57;;;;;;;5.80;4.45;;;;;;;;;;5025781;28;20030;-81
2024/02/02 03:59:22;;;;;;;5.47;4.18;;;;;;;;;;5032805;28;20033;-80
2024/02/02 04:01:48;;;;;;;5.72;4.57;;;;;;;;;;5026577;28;20072;-80
2024/02/02 04:04:13;;;;;;;6.25;4.50;;;;;;;;;;5030426;28;20408;-81
2024/02/02 04:06:39;;;;;;;5.47;4.38;;;;;;;;;;5030867;28;20305;-81
2024/02/02 04:09:05;;;;;;;5.65;4.25;;;;;;;;;;5005788;28;20037;-81
2024/02/02 04:11:32;;;;;;;6.95;4.80;;;;;;;;;;5026045;28;20061;-81
2024/02/02 04:13:58;;;;;;;5.63;4.38;;;;;;;;;;5014048;28;20097;-81
2024/02/02 04:16:23;;;;;;;6.53;4.80;;;;;;;;;;5013578;28;20490;-81
2024/02/02 04:18:49;;;;;;;6.15;4.30;;;;;;;;;;5031281;28;20030;-81
2024/02/02 04:21:16;;;;;;;6.15;4.65;;;;;;;;;;5022608;28;20049;-80
2024/02/02 04:23:41;;;;;;;6.13;4.50;;;;;;;;;;5013327;28;20072;-81
2024/02/02 04:26:07;;;;;;;6.18;4.10;;;;;;;;;;4998135;28;20065;-80
2024/02/02 04:28:32;;;;;;;5.47;4.03;;;;;;;;;;5026420;28;20440;-80
2024/02/02 04:30:58;;;;;;;5.80;4.28;;;;;;;;;;5030429;28;20424;-81
2024/02/02 04:33:23;;;;;;;6.50;4.70;;;;;;;;;;5023824;28;20551;-81
2024/02/02 04:35:50;;;;;;;6.63;4.70;;;;;;;;;;4996064;28;20095;-81
2024/02/02 04:38:17;;;;;;;5.95;4.40;;;;;;;;;;4996454;28;20120;-81
2024/02/02 04:40:44;;;;;;;4.70;3.83;;;;;;;;;;5029669;28;20057;-81
2024/02/02 04:43:09;;;;;;;6.00;4.57;;;;;;;;;;5022705;28;20179;-81
2024/02/02 04:45:35;;;;;;;6.03;4.22;;;;;;;;;;5016775;28;20531;-81
2024/02/02 04:48:00;;;;;;;6.15;4.50;;;;;;;;;;5012152;28;20045;-78
2024/02/02 04:50:28;;;;;;;6.18;4.45;;;;;;;;;;5029889;28;20120;-80
2024/02/02 04:52:53;;;;;;;7.20;4.07;;;;;;;;;;5030202;28;20017;-79
2024/02/02 04:55:19;;;;;;;5.90;4.60;;;;;;;;;;5028489;28;20013;-79
2024/02/02 04:57:44;;;;;;;8.30;4.35;;;;;;;;;;5031213;28;20036;-78
2024/02/02 05:00:10;;;;;;;5.18;4.10;;;;;;;;;;5030186;28;20037;-81
2024/02/02 05:02:36;;;;;;;5.68;4.13;;;;;;;;;;5000895;28;20119;-81
2024/02/02 05:05:01;;;;;;;5.72;4.05;;;;;;;;;;5003738;28;20718;-84
2024/02/02 05:07:26;;;;;;;5.30;4.05;;;;;;;;;;5025616;28;20017;-85
2024/02/02 05:09:52;;;;;;;6.03;4.30;;;;;;;;;;4997499;28;20044;-86
2024/02/02 05:12:17;;;;;;;6.03;4.45;;;;;;;;;;5012844;28;20027;-85
2024/02/02 05:14:42;;;;;;;6.45;4.05;;;;;;;;;;5014860;28;20097;-88
2024/02/02 05:17:08;;;;;;;5.05;3.75;;;;;;;;;;5024380;28;20025;-84
2024/02/02 05:19:34;;;;;;;5.30;3.88;;;;;;;;;;5032222;28;20017;-81
2024/02/02 05:22:00;;;;;;;5.35;3.95;;;;;;;;;;4999339;28;20029;-85
2024/02/02 05:24:25;;;;;;;5.07;3.97;;;;;;;;;;5022210;28;20020;-88
2024/02/02 05:26:52;;;;;;;5.07;4.00;;;;;;;;;;5033989;28;20044;-79
2024/02/02 05:29:25;;;;;;;5.95;4.10;;;;;;;;;;5035479;28;20500;-83
2024/02/02 05:31:59;;;;;;;5.55;3.72;;;;;;;;;;5042729;28;20024;-84
2024/02/02 05:34:24;;;;;;;6.18;4.32;;;;;;;;;;5014237;28;20030;-86
2024/02/02 05:36:50;;;;;;;5.50;3.92;;;;;;;;;;5010849;28;20059;-79
2024/02/02 05:39:15;;;;;;;5.72;4.22;;;;;;;;;;5027897;28;20491;-85
2024/02/02 05:41:41;;;;;;;5.20;3.90;;;;;;;;;;5044652;28;20040;-85
2024/02/02 05:44:06;;;;;;;5.07;3.78;;;;;;;;;;5033020;28;20038;-84
2024/02/02 05:46:31;;;;;;;7.90;4.05;;;;;;;;;;5049909;28;20045;-83
2024/02/02 05:48:57;;;;;;;5.07;3.92;;;;;;;;;;5015152;28;20033;-79
2024/02/02 05:51:22;;;;;;;5.72;3.75;;;;;;;;;;5028276;28;20030;-79
2024/02/02 05:54:04;;;;;;;4.72;3.58;;;;;;;;;;5037518;28;20052;-91
2024/02/02 05:56:29;;;;;;;5.03;3.78;;;;;;;;;;5052386;28;20033;-86
2024/02/02 05:58:55;;;;;;;4.85;4.03;;;;;;;;;;5017752;28;20098;-82
2024/02/02 06:01:20;;;;;;;5.60;4.13;;;;;;;;;;5031162;28;20512;-86
2024/02/02 06:03:46;;;;;;;5.82;4.13;;;;;;;;;;5029667;28;20033;-88
2024/02/02 06:06:11;;;;;;;4.82;3.80;;;;;;;;;;5037696;28;20123;-83
2024/02/02 06:08:37;;;;;;;4.82;3.67;;;;;;;;;;5000233;28;20037;-82
2024/02/02 06:11:03;;;;;;;5.60;3.97;;;;;;;;;;5028647;28;20045;-78
2024/02/02 06:13:30;;;;;;;4.82;3.67;;;;;;;;;;5011553;28;20136;-79
2024/02/02 06:15:55;;;;;;;4.90;3.97;;;;;;;;;;4992734;28;20167;-79
2024/02/02 06:18:21;;;;;;;5.35;4.03;;;;;;;;;;5012265;28;20052;-79
2024/02/02 06:20:46;;;;;;;6.30;3.95;;;;;;;;;;5013371;28;20076;-81
2024/02/02 06:23:12;;;;;;;6.03;4.05;;;;;;;;;;4990816;28;20045;-77
2024/02/02 06:25:38;;;;;;;5.65;3.88;;;;;;;;;;5015957;28;20034;-78
2024/02/02 06:28:03;;;;;;;5.05;3.65;;;;;;;;;;5018193;28;20052;-78
2024/02/02 06:30:28;;;;;;;5.43;3.67;;;;;;;;;;5031004;28;20040;-79
2024/02/02 06:32:59;;;;;;;4.22;3.38;;;;;;;;;;5034073;28;20112;-78
2024/02/02 06:35:28;;;;;;;5.15;4.15;;;;;;;;;;5032956;28;20536;-77
2024/02/02 06:37:53;;;;;;;5.47;4.18;;;;;;;;;;5022305;28;20034;-80
2024/02/02 06:40:18;;;;;;;5.00;3.97;;;;;;;;;;5035372;28;20057;-79
2024/02/02 06:42:44;;;;;;;5.05;3.90;;;;;;;;;;5019713;28;20044;-78
2024/02/02 06:45:09;;;;;;;5.45;4.20;;;;;;;;;;5000848;28;20034;-80
2024/02/02 06:47:37;;;;;;;8.45;3.88;;;;;;;;;;5012587;28;20034;-79
2024/02/02 06:50:02;;;;;;;4.55;3.55;;;;;;;;;;4997862;28;20107;-76
2024/02/02 06:52:28;;;;;;;5.13;3.67;;;;;;;;;;5035474;28;20038;-79
2024/02/02 06:54:53;;;;;;;5.07;4.00;;;;;;;;;;5038694;28;20029;-82
2024/02/02 06:57:19;;;;;;;5.50;3.85;;;;;;;;;;5040376;28;20037;-79
2024/02/02 06:59:44;;;;;;;5.07;3.95;;;;;;;;;;5026256;28;20029;-80
2024/02/02 07:02:16;;;;;;;4.32;3.60;;;;;;;;;;5014611;28;20049;-81
2024/02/02 07:04:41;;;;;;;5.53;3.50;;;;;;;;;;5020173;28;20033;-82
2024/02/02 07:07:06;;;;;;;5.03;3.72;;;;;;;;;;5004859;28;20056;-78
2024/02/02 07:09:32;;;;;;;4.47;3.70;;;;;;;;;;5020173;28;20071;-83
2024/02/02 07:11:58;;;;;;;5.80;3.80;;;;;;;;;;5037215;28;20447;-78
2024/02/02 07:14:42;;;;;;;4.97;3.65;;;;;;;;;;5017954;28;20087;-79
2024/02/02 07:17:20;;;;;;;4.45;3.38;;;;;;;;;;5020654;28;20405;-78
2024/02/02 07:19:46;;;;;;;4.50;3.45;;;;;;;;;;5020415;28;20093;-78
2024/02/02 07:22:30;;;;;;;4.43;3.50;;;;;;;;;;5036852;28;20133;-80
2024/02/02 07:24:55;;;;;;;4.32;3.50;;;;;;;;;;5042303;28;20071;-79
2024/02/02 07:30:31;;;;;;;4.22;3.17;;;;;;;;;;5038430;28;20033;-80
2024/02/02 07:33:00;;;;;;;5.25;3.75;;;;;;;;;;5024484;28;20100;-80
2024/02/02 07:35:31;;;;;;;4.70;3.45;;;;;;;;;;5033878;28;20045;-79
2024/02/02 07:38:07;;;;;;;5.00;3.72;;;;;;;;;;5019692;28;21282;-79
2024/02/02 07:40:51;;;;;;;4.40;3.65;;;;;;;;;;5011612;28;20164;-77
2024/02/02 07:43:17;;;;;;;5.88;3.50;;;;;;;;;;5038883;28;20439;-78
2024/02/02 07:45:42;;;;;;;10.02;3.80;;;;;;;;;;5039396;28;20116;-80
2024/02/02 07:48:07;;;;;;;22.15;5.25;;;;;;;;;;5041738;28;20048;-82
2024/02/02 07:50:34;;;;;;;6.65;3.20;;;;;;;;;;5027198;28;20527;-77
2024/02/02 07:52:59;;;;;;;5.55;3.40;;;;;;;;;;5014833;28;20029;-78
2024/02/02 07:55:25;;;;;;;8.15;3.90;;;;;;;;;;5017605;28;20383;-76
2024/02/02 07:57:51;;;;;;;9.30;3.50;;;;;;;;;;5024513;28;20483;-79
2024/02/02 08:00:17;;;;;;;4.75;3.50;;;;;;;;;;5032351;28;20041;-76
2024/02/02 08:02:42;;;;;;;7.28;3.63;;;;;;;;;;5012711;28;20492;-76
2024/02/02 08:05:08;;;;;;;6.97;3.70;;;;;;;;;;5002078;28;20084;-76
2024/02/02 08:07:34;;;;;;;5.38;3.42;;;;;;;;;;5030444;28;20040;-76
2024/02/02 08:09:59;;;;;;;8.85;3.80;;;;;;;;;;5036255;28;20033;-77
2024/02/02 08:12:24;;;;;;;5.05;3.60;;;;;;;;;;5034860;28;20037;-77
2024/02/02 08:14:50;;;;;;;5.85;3.38;;;;;;;;;;5036258;28;20049;-77
2024/02/02 08:17:15;;;;;;;6.57;3.70;;;;;;;;;;5031898;28;20424;-77
2024/02/02 08:19:40;;;;;;;6.30;3.58;;;;;;;;;;5015842;28;20081;-78
2024/02/02 08:22:06;;;;;;;7.20;3.53;;;;;;;;;;5018321;28;20033;-77
2024/02/02 08:24:31;;;;;;;9.13;3.80;;;;;;;;;;5014810;28;20034;-78
2024/02/02 08:26:56;;;;;;;6.55;3.65;;;;;;;;;;5031364;28;20041;-79
2024/02/02 08:29:22;;;;;;;6.55;3.83;;;;;;;;;;5033102;28;20686;-78
2024/02/02 08:31:49;;;;;;;6.97;3.83;;;;;;;;;;5013102;28;20072;-77
2024/02/02 08:34:15;;;;;;;6.70;3.72;;;;;;;;;;5012528;28;20041;-76
2024/02/02 08:36:40;;;;;;;5.32;3.80;;;;;;;;;;5008129;28;20542;-77
2024/02/02 08:39:06;;;;;;;6.38;4.15;;;;;;;;;;4998774;28;20100;-78
2024/02/02 08:41:32;;;;;;;7.10;3.55;;;;;;;;;;5005003;28;20058;-78
2024/02/02 08:43:57;;;;;;;5.63;3.45;;;;;;;;;;4995070;28;20414;-79
2024/02/02 08:46:23;;;;;;;6.40;3.55;;;;;;;;;;5029221;28;20129;-79
2024/02/02 08:48:51;;;;;;;5.38;3.70;;;;;;;;;;4996854;28;20060;-78
2024/02/02 08:51:23;;;;;;;4.55;3.50;;;;;;;;;;5023433;28;20045;-78
2024/02/02 08:54:07;;;;;;;5.45;3.90;;;;;;;;;;5031027;28;20084;-78
2024/02/02 08:56:33;;;;;;;5.45;3.70;;;;;;;;;;5015971;28;20071;-78
2024/02/02 08:58:58;;;;;;;5.88;3.72;;;;;;;;;;5020862;28;20045;-79
2024/02/02 09:01:41;;;;;;;4.95;3.65;;;;;;;;;;5019064;28;20045;-80
2024/02/02 09:04:16;;;;;;;5.32;3.70;;;;;;;;;;5017668;28;20071;-78
2024/02/02 09:06:42;;;;;;;5.35;3.67;;;;;;;;;;5020037;28;20114;-79
2024/02/02 09:09:08;;;;;;;6.10;3.97;;;;;;;;;;4994307;28;20029;-79
2024/02/02 09:11:33;;;;;;;5.70;3.58;;;;;;;;;;4995370;28;20068;-80
2024/02/02 09:14:11;;;;;;;6.95;4.15;;;;;;;;;;4991115;28;20417;-79
2024/02/02 09:16:46;;;;;;;5.93;3.90;;;;;;;;;;5011636;28;20495;-78
2024/02/02 09:19:30;;;;;;;5.63;3.90;;;;;;;;;;5038336;28;20535;-79
2024/02/02 09:22:02;;;;;;;5.75;3.83;;;;;;;;;;5034037;28;20138;-80
2024/02/02 09:24:55;;;;;;;6.05;3.50;;;;;;;;;;5007313;28;20038;-80
2024/02/02 09:27:35;;;;;;;5.90;4.03;;;;;;;;;;5025522;28;20524;-78
2024/02/02 09:30:02;;;;;;;6.40;4.00;;;;;;;;;;5008969;28;20038;-79
2024/02/02 09:32:27;;;;;;;5.68;3.85;;;;;;;;;;5022311;28;20057;-78
2024/02/02 09:34:59;;;;;;;6.45;4.38;;;;;;;;;;5010209;28;20048;-82
2024/02/02 09:37:38;;;;;;;4.93;3.50;;;;;;;;;;5007716;28;20045;-77
2024/02/02 09:40:10;;;;;;;6.60;3.97;;;;;;;;;;5033398;28;20072;-76
2024/02/02 09:42:45;;;;;;;5.55;3.78;;;;;;;;;;5039682;28;20136;-78
2024/02/02 09:45:18;;;;;;;5.63;3.97;;;;;;;;;;5035288;28;20083;-82
2024/02/02 09:47:54;;;;;;;5.70;3.70;;;;;;;;;;5025375;28;20044;-85
2024/02/02 09:53:42;;;;;;;5.22;3.50;;;;;;;;;;5022671;28;20056;-83
2024/02/02 09:56:07;;;;;;;5.68;3.53;;;;;;;;;;5045744;28;20116;-84
2024/02/02 09:58:35;;;;;;;5.18;3.90;;;;;;;;;;5039135;28;20048;-83
2024/02/02 10:01:06;;;;;;;5.72;3.63;;;;;;;;;;5024761;28;20073;-82
2024/02/02 10:03:44;;;;;;;6.25;3.90;;;;;;;;;;5036495;28;20052;-82
2024/02/02 10:06:13;;;;;;;5.80;4.18;;;;;;;;;;5026952;28;20034;-84
2024/02/02 10:08:38;;;;;;;4.72;3.42;;;;;;;;;;5023660;28;20052;-86
2024/02/02 10:11:14;;;;;;;6.97;4.07;;;;;;;;;;5040812;28;20014;-87
2024/02/02 10:13:55;;;;;;;6.35;3.83;;;;;;;;;;5027218;28;20046;-90
2024/02/02 10:16:40;;;;;;;5.68;3.53;;;;;;;;;;5033417;28;20072;-85
2024/02/02 10:19:17;;;;;;;5.80;3.70;;;;;;;;;;5029255;28;20033;-81
2024/02/02 10:21:47;;;;;;;5.53;3.55;;;;;;;;;;5045106;28;20498;-80
2024/02/02 10:24:12;;;;;;;5.93;3.75;;;;;;;;;;5021826;28;20025;-85
2024/02/02 10:26:38;;;;;;;5.05;3.47;;;;;;;;;;5029374;28;20349;-84
2024/02/02 10:29:17;;;;;;;6.82;3.83;;;;;;;;;;5031429;28;20026;-82
2024/02/02 10:32:03;;;;;;;5.78;3.70;;;;;;;;;;5031851;28;20048;-83
2024/02/02 10:34:40;;;;;;;4.82;3.63;;;;;;;;;;5015029;28;20037;-81
2024/02/02 10:37:08;;;;;;;5.85;3.70;;;;;;;;;;5008978;28;20081;-88
2024/02/02 10:39:39;;;;;;;5.00;3.80;;;;;;;;;;5037414;28;20044;-88
2024/02/02 10:42:05;;;;;;;5.20;3.50;;;;;;;;;;5017990;28;20034;-87
2024/02/02 10:44:33;;;;;;;5.15;3.63;;;;;;;;;;5018083;28;20038;-94
2024/02/02 10:47:01;;;;;;;6.07;3.88;;;;;;;;;;5036282;28;20097;-94
2024/02/02 10:49:36;;;;;;;6.57;3.72;;;;;;;;;;5037830;28;20091;-86
2024/02/02 10:52:07;;;;;;;7.30;3.50;;;;;;;;;;5037049;28;20041;-87
2024/02/02 10:54:40;;;;;;;5.07;3.28;;;;;;;;;;5041283;28;20618;-89
2024/02/02 10:57:11;;;;;;;5.43;3.63;;;;;;;;;;5012644;28;20037;-82
2024/02/02 10:59:55;;;;;;;5.32;3.40;;;;;;;;;;5028484;28;20116;-88
2024/02/02 11:02:32;;;;;;;5.57;3.58;;;;;;;;;;5028621;28;20050;-87
2024/02/02 11:05:07;;;;;;;5.07;3.60;;;;;;;;;;5043560;28;20037;-90
2024/02/02 11:07:34;;;;;;;5.65;3.60;;;;;;;;;;5034358;28;20041;-85
2024/02/02 11:10:03;;;;;;;6.20;3.63;;;;;;;;;;5002761;28;20489;-84
2024/02/02 11:12:37;;;;;;;5.23;3.50;;;;;;;;;;5008974;28;20022;-85
2024/02/02 11:15:12;;;;;;;5.45;3.55;;;;;;;;;;5031268;28;20280;-84
2024/02/02 11:17:50;;;;;;;5.88;3.58;;;;;;;;;;5032886;28;20464;-84
2024/02/02 11:20:21;;;;;;;4.95;3.58;;;;;;;;;;5038606;28;20496;-83
2024/02/02 11:22:48;;;;;;;5.15;3.60;;;;;;;;;;5029792;28;20041;-83
2024/02/02 11:25:14;;;;;;;5.20;3.45;;;;;;;;;;5002588;28;20922;-88
2024/02/02 11:27:48;;;;;;;5.20;3.40;;;;;;;;;;5037043;28;20034;-92
2024/02/02 11:30:29;;;;;;;7.30;3.75;;;;;;;;;;5004843;28;20149;-89
2024/02/02 11:32:57;;;;;;;4.82;3.25;;;;;;;;;;5038229;28;20115;-85
2024/02/02 11:35:39;;;;;;;5.35;3.38;;;;;;;;;;5019442;28;20110;-88
2024/02/02 11:38:10;;;;;;;7.07;3.67;;;;;;;;;;5028602;28;20130;-88
2024/02/02 11:40:35;;;;;;;5.00;3.80;;;;;;;;;;5033871;28;20049;-86
2024/02/02 11:43:01;;;;;;;5.22;3.53;;;;;;;;;;5023766;28;20036;-88
2024/02/02 11:45:33;;;;;;;6.72;3.80;;;;;;;;;;5031582;28;20033;-88
2024/02/02 11:48:03;;;;;;;4.50;3.30;;;;;;;;;;5038951;28;20030;-87
2024/02/02 11:50:30;;;;;;;5.07;3.63;;;;;;;;;;5037818;28;20049;-86
2024/02/02 11:53:07;;;;;;;6.05;3.50;;;;;;;;;;5008158;28;20120;-85
2024/02/02 11:55:36;;;;;;;5.03;3.50;;;;;;;;;;5022609;28;20030;-87
2024/02/02 11:58:06;;;;;;;4.82;3.53;;;;;;;;;;5023040;28;20052;-90
2024/02/02 12:00:31;;;;;;;;;;;;;;;;;;5036769;28;20088;-90
2024/02/02 12:03:05;;;;;;;5.30;2.90;;;;;;;;;;5056215;28;19909;-90
2024/02/02 12:05:51;;;;;;;4.75;3.28;;;;;;;;;;5054708;28;20052;-86
2024/02/02 12:08:21;;;;;;;4.53;3.35;;;;;;;;;;5037824;28;20021;-88
2024/02/02 12:10:46;;;;;;;4.68;3.22;;;;;;;;;;5055609;28;20436;-88
2024/02/02 12:13:15;;;;;;;4.38;3.00;;;;;;;;;;5019346;28;20056;-88
2024/02/02 12:15:40;;;;;;;6.03;3.45;;;;;;;;;;5018371;28;20042;-88
2024/02/02 12:18:06;;;;;;;5.18;3.20;;;;;;;;;;5046325;28;20111;-88
2024/02/02 12:20:32;;;;;;;5.05;3.20;;;;;;;;;;4999574;28;20106;-88
2024/02/02 12:22:58;;;;;;;5.47;3.42;;;;;;;;;;5037942;28;20068;-89
2024/02/02 12:25:24;;;;;;;4.70;2.90;;;;;;;;;;5005797;28;20034;-85
2024/02/02 12:27:50;;;;;;;4.38;2.88;;;;;;;;;;5025061;28;20026;-87
2024/02/02 12:30:16;;;;;;;3.83;3.03;;;;;;;;;;5036342;28;20056;-85
2024/02/02 12:32:50;;;;;;;3.72;2.88;;;;;;;;;;5016096;28;20120;-81
2024/02/02 12:35:16;;;;;;;4.53;3.17;;;;;;;;;;5008228;28;20042;-80
2024/02/02 12:37:48;;;;;;;5.25;2.70;;;;;;;;;;4989718;28;20044;-80
2024/02/02 12:40:13;;;;;;;3.80;2.78;;;;;;;;;;4991481;28;20150;-86
2024/02/02 12:42:39;;;;;;;4.18;3.00;;;;;;;;;;5000843;28;20563;-85
2024/02/02 12:45:08;;;;;;;4.45;2.80;;;;;;;;;;5009572;28;20030;-83
2024/02/02 12:47:33;;;;;;;5.00;3.20;;;;;;;;;;5020007;28;20057;-87
2024/02/02 12:50:00;;;;;;;4.40;2.90;;;;;;;;;;5031695;28;20046;-83
2024/02/02 12:52:26;;;;;;;4.05;2.90;;;;;;;;;;5043357;28;20045;-82
2024/02/02 12:54:52;;;;;;;4.50;3.05;;;;;;;;;;5028363;28;20037;-81
2024/02/02 12:57:19;;;;;;;3.65;2.78;;;;;;;;;;5009336;28;20045;-80
2024/02/02 12:59:45;;;;;;;4.10;2.83;;;;;;;;;;5016958;28;20033;-80
2024/02/02 13:02:13;;;;;;;4.50;2.83;;;;;;;;;;5036791;28;20056;-82
2024/02/02 13:04:38;;;;;;;4.00;2.83;;;;;;;;;;5033408;28;20034;-84
2024/02/02 13:07:04;;;;;;;4.13;2.90;;;;;;;;;;5030804;28;20061;-82
2024/02/02 13:09:32;;;;;;;3.70;2.70;;;;;;;;;;4998022;28;20033;-82
2024/02/02 13:11:57;;;;;;;4.00;2.72;;;;;;;;;;5032862;28;20492;-82
2024/02/02 13:14:33;;;;;;;3.75;2.65;;;;;;;;;;5016303;28;20107;-81
2024/02/02 13:17:08;;;;;;;4.28;2.88;;;;;;;;;;5017035;28;20037;-82
2024/02/02 13:19:47;;;;;;;3.72;2.63;;;;;;;;;;5025241;28;20037;-82
2024/02/02 13:22:26;;;;;;;3.85;2.50;;;;;;;;;;5029069;28;20096;-82
2024/02/02 13:24:53;;;;;;;3.63;2.72;;;;;;;;;;5017271;28;20033;-83
2024/02/02 13:27:19;;;;;;;3.60;2.75;;;;;;;;;;5013051;28;20030;-82
2024/02/02 13:29:49;;;;;;;3.28;2.58;;;;;;;;;;5034712;28;20029;-84
2024/02/02 13:32:15;;;;;;;3.58;2.70;;;;;;;;;;5031393;28;20060;-80
2024/02/02 13:34:40;;;;;;;3.33;2.38;;;;;;;;;;5031335;28;20037;-81
2024/02/02 13:37:06;;;;;;;4.13;2.80;;;;;;;;;;5009961;28;20045;-79
2024/02/02 13:39:33;;;;;;;3.92;2.72;;;;;;;;;;5008024;28;20554;-79
2024/02/02 13:42:02;;;;;;;3.70;2.33;;;;;;;;;;5015920;28;20060;-83
2024/02/02 13:44:27;;;;;;;4.18;2.72;;;;;;;;;;5016127;28;20041;-83
2024/02/02 13:46:55;;;;;;;4.95;2.70;;;;;;;;;;4995967;28;20048;-77
2024/02/02 13:49:22;;;;;;;3.85;2.53;;;;;;;;;;5027972;28;20033;-79
2024/02/02 13:51:47;;;;;;;3.28;2.33;;;;;;;;;;5011786;28;20005;-78
2024/02/02 13:54:15;;;;;;;3.83;2.55;;;;;;;;;;5034207;28;20083;-82
2024/02/02 13:56:41;;;;;;;3.53;2.77;;;;;;;;;;5024476;28;20048;-80
2024/02/02 13:59:07;;;;;;;4.30;2.50;;;;;;;;;;5026182;28;20036;-82
2024/02/02 14:01:32;;;;;;;4.47;2.63;;;;;;;;;;4997995;28;20526;-82
2024/02/02 14:03:58;;;;;;;4.13;2.72;;;;;;;;;;4998338;28;20025;-82
2024/02/02 14:06:24;;;;;;;5.03;2.40;;;;;;;;;;5018968;28;20433;-83
2024/02/02 14:08:51;;;;;;;3.50;2.70;;;;;;;;;;5001123;28;20428;-83
2024/02/02 14:11:26;;;;;;;3.53;2.40;;;;;;;;;;5028474;28;20025;-82
2024/02/02 14:13:52;;;;;;;4.10;2.40;;;;;;;;;;5011628;28;20033;-81
2024/02/02 14:16:17;;;;;;;3.00;2.42;;;;;;;;;;5011919;28;20037;-79
2024/02/02 14:18:43;;;;;;;3.22;2.40;;;;;;;;;;5015100;28;20037;-80
2024/02/02 14:21:09;;;;;;;3.47;2.58;;;;;;;;;;5012526;28;20053;-80
2024/02/02 14:23:34;;;;;;;3.40;2.38;;;;;;;;;;5026583;28;20034;-81
2024/02/02 14:26:07;;;;;;;3.78;2.45;;;;;;;;;;5013017;28;20623;-81
2024/02/02 14:28:32;;;;;;;2.88;2.25;;;;;;;;;;5025946;28;20060;-80
2024/02/02 14:31:01;;;;;;;3.92;2.60;;;;;;;;;;5003597;28;20497;-81
2024/02/02 14:33:27;;;;;;;3.83;2.58;;;;;;;;;;5029973;28;20127;-81
2024/02/02 14:35:55;;;;;;;3.58;2.38;;;;;;;;;;5013412;28;20176;-81
2024/02/02 14:38:20;;;;;;;3.03;2.20;;;;;;;;;;5029278;28;20030;-81
2024/02/02 14:40:48;;;;;;;3.03;2.20;;;;;;;;;;5030153;28;20566;-79
2024/02/02 14:43:13;;;;;;;3.80;2.63;;;;;;;;;;5020619;28;20145;-78
2024/02/02 14:45:40;;;;;;;4.05;2.30;;;;;;;;;;5014853;28;20060;-80
2024/02/02 14:48:06;;;;;;;4.18;2.40;;;;;;;;;;5034724;28;20589;-81
2024/02/02 14:50:33;;;;;;;3.67;2.65;;;;;;;;;;5033112;28;20042;-80
2024/02/02 14:52:58;;;;;;;3.65;2.45;;;;;;;;;;5018351;28;20542;-81